sensor_id;sensor_type;location;lat;lon;timestamp;temperature;humidity
69382;DHT22;56560;50.692;12.844;2023-06-10T00:00:43;12.90;85.20
69382;DHT22;56560;50.692;12.844;2023-06-10T00:03:10;12.90;84.40
69382;DHT22;56560;50.692;12.844;2023-06-10T00:05:36;12.80;84.50
69382;DHT22;56560;50.692;12.844;2023-06-10T00:08:04;12.80;85.40
69382;DHT22;56560;50.692;12.844;2023-06-10T00:10:38;12.80;86.60
69382;DHT22;56560;50.692;12.844;2023-06-10T00:13:05;12.80;85.80
69382;DHT22;56560;50.692;12.844;2023-06-10T00:15:34;12.80;85.60
69382;DHT22;56560;50.692;12.844;2023-06-10T00:18:00;12.80;84.90
69382;DHT22;56560;50.692;12.844;2023-06-10T00:20:27;12.70;84.80
69382;DHT22;56560;50.692;12.844;2023-06-10T00:22:53;12.60;85.80
69382;DHT22;56560;50.692;12.844;2023-06-10T00:25:19;12.60;85.80
69382;DHT22;56560;50.692;12.844;2023-06-10T00:27:44;12.50;86.50
69382;DHT22;56560;50.692;12.844;2023-06-10T00:30:10;12.50;87.20
69382;DHT22;56560;50.692;12.844;2023-06-10T00:32:37;12.50;87.20
69382;DHT22;56560;50.692;12.844;2023-06-10T00:35:03;12.50;87.50
69382;DHT22;56560;50.692;12.844;2023-06-10T00:37:29;12.50;87.20
69382;DHT22;56560;50.692;12.844;2023-06-10T00:39:55;12.60;86.90
69382;DHT22;56560;50.692;12.844;2023-06-10T00:42:21;12.60;87.30
69382;DHT22;56560;50.692;12.844;2023-06-10T00:44:53;12.60;87.10
69382;DHT22;56560;50.692;12.844;2023-06-10T00:47:19;12.60;86.80
69382;DHT22;56560;50.692;12.844;2023-06-10T00:49:45;12.60;86.50
69382;DHT22;56560;50.692;12.844;2023-06-10T00:52:11;12.60;86.80
69382;DHT22;56560;50.692;12.844;2023-06-10T00:54:38;12.60;87.00
69382;DHT22;56560;50.692;12.844;2023-06-10T00:57:04;12.60;85.90
69382;DHT22;56560;50.692;12.844;2023-06-10T00:59:31;12.60;85.70
69382;DHT22;56560;50.692;12.844;2023-06-10T01:01:57;12.60;85.80
69382;DHT22;56560;50.692;12.844;2023-06-10T01:04:23;12.60;85.50
69382;DHT22;56560;50.692;12.844;2023-06-10T01:12:15;12.40;85.90
69382;DHT22;56560;50.692;12.844;2023-06-10T01:14:42;12.40;85.70
69382;DHT22;56560;50.692;12.844;2023-06-10T01:17:11;12.40;85.90
69382;DHT22;56560;50.692;12.844;2023-06-10T01:19:37;12.40;85.40
69382;DHT22;56560;50.692;12.844;2023-06-10T01:22:03;12.30;85.50
69382;DHT22;56560;50.692;12.844;2023-06-10T01:24:31;12.20;85.60
69382;DHT22;56560;50.692;12.844;2023-06-10T01:27:01;12.20;85.10
69382;DHT22;56560;50.692;12.844;2023-06-10T01:29:37;12.20;85.50
69382;DHT22;56560;50.692;12.844;2023-06-10T01:32:17;12.10;87.20
69382;DHT22;56560;50.692;12.844;2023-06-10T01:34:44;12.20;87.50
69382;DHT22;56560;50.692;12.844;2023-06-10T01:37:13;12.20;87.30
69382;DHT22;56560;50.692;12.844;2023-06-10T01:39:42;12.20;86.50
69382;DHT22;56560;50.692;12.844;2023-06-10T01:42:09;12.20;87.00
69382;DHT22;56560;50.692;12.844;2023-06-10T01:44:35;12.20;86.40
69382;DHT22;56560;50.692;12.844;2023-06-10T01:47:01;12.20;86.10
69382;DHT22;56560;50.692;12.844;2023-06-10T01:49:26;12.20;86.20
69382;DHT22;56560;50.692;12.844;2023-06-10T01:51:53;12.10;85.70
69382;DHT22;56560;50.692;12.844;2023-06-10T01:54:19;12.10;86.10
69382;DHT22;56560;50.692;12.844;2023-06-10T01:56:45;12.10;85.90
69382;DHT22;56560;50.692;12.844;2023-06-10T01:59:11;12.00;86.10
69382;DHT22;56560;50.692;12.844;2023-06-10T02:01:36;12.00;85.80
69382;DHT22;56560;50.692;12.844;2023-06-10T02:04:02;11.90;85.60
69382;DHT22;56560;50.692;12.844;2023-06-10T02:06:28;11.80;85.70
69382;DHT22;56560;50.692;12.844;2023-06-10T02:08:53;11.80;85.80
69382;DHT22;56560;50.692;12.844;2023-06-10T02:11:19;11.70;85.70
69382;DHT22;56560;50.692;12.844;2023-06-10T02:13:45;11.70;85.70
69382;DHT22;56560;50.692;12.844;2023-06-10T02:16:10;11.60;86.80
69382;DHT22;56560;50.692;12.844;2023-06-10T02:18:38;11.60;86.20
69382;DHT22;56560;50.692;12.844;2023-06-10T02:21:06;11.60;85.90
69382;DHT22;56560;50.692;12.844;2023-06-10T02:23:32;11.60;86.40
69382;DHT22;56560;50.692;12.844;2023-06-10T02:25:57;11.60;85.90
69382;DHT22;56560;50.692;12.844;2023-06-10T02:28:23;11.50;85.80
69382;DHT22;56560;50.692;12.844;2023-06-10T02:30:49;11.50;86.00
69382;DHT22;56560;50.692;12.844;2023-06-10T02:33:15;11.50;86.20
69382;DHT22;56560;50.692;12.844;2023-06-10T02:35:41;11.40;86.00
69382;DHT22;56560;50.692;12.844;2023-06-10T02:38:06;11.40;86.20
69382;DHT22;56560;50.692;12.844;2023-06-10T02:40:32;11.40;86.50
69382;DHT22;56560;50.692;12.844;2023-06-10T02:42:58;11.40;86.20
69382;DHT22;56560;50.692;12.844;2023-06-10T02:45:24;11.40;87.60
69382;DHT22;56560;50.692;12.844;2023-06-10T02:47:50;11.40;86.90
69382;DHT22;56560;50.692;12.844;2023-06-10T02:50:15;11.40;86.90
69382;DHT22;56560;50.692;12.844;2023-06-10T02:52:41;11.40;86.20
69382;DHT22;56560;50.692;12.844;2023-06-10T02:55:07;11.40;86.10
69382;DHT22;56560;50.692;12.844;2023-06-10T02:57:33;11.30;85.90
69382;DHT22;56560;50.692;12.844;2023-06-10T02:59:58;11.30;86.10
69382;DHT22;56560;50.692;12.844;2023-06-10T03:02:25;11.30;86.80
69382;DHT22;56560;50.692;12.844;2023-06-10T03:04:57;11.30;86.00
69382;DHT22;56560;50.692;12.844;2023-06-10T03:07:23;11.40;85.60
69382;DHT22;56560;50.692;12.844;2023-06-10T03:09:49;11.40;86.30
69382;DHT22;56560;50.692;12.844;2023-06-10T03:12:15;11.40;86.20
69382;DHT22;56560;50.692;12.844;2023-06-10T03:14:41;11.50;85.60
69382;DHT22;56560;50.692;12.844;2023-06-10T03:17:07;11.60;85.10
69382;DHT22;56560;50.692;12.844;2023-06-10T03:19:34;11.60;84.80
69382;DHT22;56560;50.692;12.844;2023-06-10T03:22:15;11.70;85.00
69382;DHT22;56560;50.692;12.844;2023-06-10T03:24:41;11.80;85.00
69382;DHT22;56560;50.692;12.844;2023-06-10T03:27:09;11.90;85.30
69382;DHT22;56560;50.692;12.844;2023-06-10T03:29:37;12.00;84.40
69382;DHT22;56560;50.692;12.844;2023-06-10T03:32:03;12.20;83.90
69382;DHT22;56560;50.692;12.844;2023-06-10T03:34:29;12.30;84.00
69382;DHT22;56560;50.692;12.844;2023-06-10T03:36:59;12.40;83.40
69382;DHT22;56560;50.692;12.844;2023-06-10T03:39:25;12.50;83.20
69382;DHT22;56560;50.692;12.844;2023-06-10T03:41:54;12.60;83.00
69382;DHT22;56560;50.692;12.844;2023-06-10T03:44:20;12.70;83.00
69382;DHT22;56560;50.692;12.844;2023-06-10T03:46:45;12.80;82.60
69382;DHT22;56560;50.692;12.844;2023-06-10T03:49:12;13.00;82.00
69382;DHT22;56560;50.692;12.844;2023-06-10T03:51:38;13.10;81.50
69382;DHT22;56560;50.692;12.844;2023-06-10T03:54:04;13.30;81.10
69382;DHT22;56560;50.692;12.844;2023-06-10T03:56:31;13.40;80.80
69382;DHT22;56560;50.692;12.844;2023-06-10T03:58:57;13.50;80.80
69382;DHT22;56560;50.692;12.844;2023-06-10T04:01:22;13.70;80.40
69382;DHT22;56560;50.692;12.844;2023-06-10T04:03:49;13.80;79.90
69382;DHT22;56560;50.692;12.844;2023-06-10T04:06:16;14.10;79.20
69382;DHT22;56560;50.692;12.844;2023-06-10T04:08:42;14.20;78.90
69382;DHT22;56560;50.692;12.844;2023-06-10T04:11:08;14.40;78.70
69382;DHT22;56560;50.692;12.844;2023-06-10T04:13:34;14.70;78.00
69382;DHT22;56560;50.692;12.844;2023-06-10T04:16:00;14.80;77.30
69382;DHT22;56560;50.692;12.844;2023-06-10T04:18:25;14.90;76.90
69382;DHT22;56560;50.692;12.844;2023-06-10T04:20:51;15.00;76.70
69382;DHT22;56560;50.692;12.844;2023-06-10T04:23:17;15.00;76.90
69382;DHT22;56560;50.692;12.844;2023-06-10T04:25:42;15.00;76.90
69382;DHT22;56560;50.692;12.844;2023-06-10T04:28:08;15.00;77.00
69382;DHT22;56560;50.692;12.844;2023-06-10T04:30:34;15.10;77.10
69382;DHT22;56560;50.692;12.844;2023-06-10T04:32:59;15.10;77.20
69382;DHT22;56560;50.692;12.844;2023-06-10T04:35:25;15.10;77.20
69382;DHT22;56560;50.692;12.844;2023-06-10T04:37:53;15.20;77.30
69382;DHT22;56560;50.692;12.844;2023-06-10T04:40:19;15.30;76.90
69382;DHT22;56560;50.692;12.844;2023-06-10T04:42:45;15.30;76.90
69382;DHT22;56560;50.692;12.844;2023-06-10T04:45:11;15.40;76.90
69382;DHT22;56560;50.692;12.844;2023-06-10T04:47:36;15.50;77.40
69382;DHT22;56560;50.692;12.844;2023-06-10T04:50:03;15.60;76.90
69382;DHT22;56560;50.692;12.844;2023-06-10T04:52:29;15.60;77.30
69382;DHT22;56560;50.692;12.844;2023-06-10T04:54:55;15.80;77.20
69382;DHT22;56560;50.692;12.844;2023-06-10T04:57:21;15.90;76.70
69382;DHT22;56560;50.692;12.844;2023-06-10T04:59:47;16.00;76.60
69382;DHT22;56560;50.692;12.844;2023-06-10T05:02:13;16.20;76.10
69382;DHT22;56560;50.692;12.844;2023-06-10T05:04:39;16.30;75.90
69382;DHT22;56560;50.692;12.844;2023-06-10T05:07:05;16.40;75.50
69382;DHT22;56560;50.692;12.844;2023-06-10T05:09:31;16.50;75.70
69382;DHT22;56560;50.692;12.844;2023-06-10T05:11:56;16.60;75.50
69382;DHT22;56560;50.692;12.844;2023-06-10T05:14:22;16.70;75.50
69382;DHT22;56560;50.692;12.844;2023-06-10T05:16:48;16.90;75.30
69382;DHT22;56560;50.692;12.844;2023-06-10T05:19:13;17.10;74.70
69382;DHT22;56560;50.692;12.844;2023-06-10T05:21:41;17.20;74.20
69382;DHT22;56560;50.692;12.844;2023-06-10T05:24:07;17.30;74.20
69382;DHT22;56560;50.692;12.844;2023-06-10T05:26:33;17.30;74.40
69382;DHT22;56560;50.692;12.844;2023-06-10T05:29:02;17.60;74.10
69382;DHT22;56560;50.692;12.844;2023-06-10T05:31:28;17.80;73.50
69382;DHT22;56560;50.692;12.844;2023-06-10T05:33:53;18.10;73.00
69382;DHT22;56560;50.692;12.844;2023-06-10T05:36:19;18.30;72.90
69382;DHT22;56560;50.692;12.844;2023-06-10T05:38:45;18.40;72.40
69382;DHT22;56560;50.692;12.844;2023-06-10T05:41:10;18.60;72.00
69382;DHT22;56560;50.692;12.844;2023-06-10T05:43:36;18.70;71.30
69382;DHT22;56560;50.692;12.844;2023-06-10T05:46:02;18.70;70.30
69382;DHT22;56560;50.692;12.844;2023-06-10T05:48:27;18.80;69.40
69382;DHT22;56560;50.692;12.844;2023-06-10T05:50:53;18.90;68.60
69382;DHT22;56560;50.692;12.844;2023-06-10T05:53:19;18.90;68.70
69382;DHT22;56560;50.692;12.844;2023-06-10T05:55:45;19.00;70.60
69382;DHT22;56560;50.692;12.844;2023-06-10T05:58:12;19.10;68.60
69382;DHT22;56560;50.692;12.844;2023-06-10T06:00:41;19.30;68.10
69382;DHT22;56560;50.692;12.844;2023-06-10T06:03:07;19.50;66.80
69382;DHT22;56560;50.692;12.844;2023-06-10T06:05:36;19.60;66.60
69382;DHT22;56560;50.692;12.844;2023-06-10T06:08:07;19.80;66.50
69382;DHT22;56560;50.692;12.844;2023-06-10T06:10:33;20.00;65.90
69382;DHT22;56560;50.692;12.844;2023-06-10T06:12:59;20.10;65.80
69382;DHT22;56560;50.692;12.844;2023-06-10T06:15:25;20.30;66.10
69382;DHT22;56560;50.692;12.844;2023-06-10T06:17:51;20.50;66.00
69382;DHT22;56560;50.692;12.844;2023-06-10T06:20:22;20.60;64.80
69382;DHT22;56560;50.692;12.844;2023-06-10T06:22:48;20.70;64.60
69382;DHT22;56560;50.692;12.844;2023-06-10T06:25:14;20.70;63.60
69382;DHT22;56560;50.692;12.844;2023-06-10T06:27:40;20.70;64.60
69382;DHT22;56560;50.692;12.844;2023-06-10T06:30:06;20.80;65.00
69382;DHT22;56560;50.692;12.844;2023-06-10T06:32:32;20.90;63.70
69382;DHT22;56560;50.692;12.844;2023-06-10T06:34:58;20.90;64.00
69382;DHT22;56560;50.692;12.844;2023-06-10T06:37:24;21.00;63.40
69382;DHT22;56560;50.692;12.844;2023-06-10T06:39:51;21.10;62.80
69382;DHT22;56560;50.692;12.844;2023-06-10T06:42:17;21.20;63.00
69382;DHT22;56560;50.692;12.844;2023-06-10T06:44:42;21.20;62.70
69382;DHT22;56560;50.692;12.844;2023-06-10T06:47:08;21.30;62.80
69382;DHT22;56560;50.692;12.844;2023-06-10T06:49:34;21.40;62.30
69382;DHT22;56560;50.692;12.844;2023-06-10T06:52:00;21.40;62.30
69382;DHT22;56560;50.692;12.844;2023-06-10T06:54:25;21.60;62.00
69382;DHT22;56560;50.692;12.844;2023-06-10T06:56:51;21.70;61.30
69382;DHT22;56560;50.692;12.844;2023-06-10T06:59:16;21.80;61.60
69382;DHT22;56560;50.692;12.844;2023-06-10T07:01:45;21.90;61.10
69382;DHT22;56560;50.692;12.844;2023-06-10T07:04:11;22.00;61.20
69382;DHT22;56560;50.692;12.844;2023-06-10T07:06:36;22.10;61.10
69382;DHT22;56560;50.692;12.844;2023-06-10T07:09:04;22.30;60.50
69382;DHT22;56560;50.692;12.844;2023-06-10T07:11:30;22.20;60.40
69382;DHT22;56560;50.692;12.844;2023-06-10T07:13:56;22.30;60.30
69382;DHT22;56560;50.692;12.844;2023-06-10T07:16:21;22.30;59.90
69382;DHT22;56560;50.692;12.844;2023-06-10T07:18:47;22.40;59.90
69382;DHT22;56560;50.692;12.844;2023-06-10T07:21:13;22.50;60.20
69382;DHT22;56560;50.692;12.844;2023-06-10T07:23:42;22.60;59.10
69382;DHT22;56560;50.692;12.844;2023-06-10T07:26:08;22.80;59.30
69382;DHT22;56560;50.692;12.844;2023-06-10T07:28:36;22.90;58.80
69382;DHT22;56560;50.692;12.844;2023-06-10T07:31:03;22.80;58.50
69382;DHT22;56560;50.692;12.844;2023-06-10T07:33:28;22.90;58.40
69382;DHT22;56560;50.692;12.844;2023-06-10T07:35:54;23.00;58.80
69382;DHT22;56560;50.692;12.844;2023-06-10T07:38:20;23.00;57.30
69382;DHT22;56560;50.692;12.844;2023-06-10T07:40:46;23.00;58.10
69382;DHT22;56560;50.692;12.844;2023-06-10T07:43:11;23.10;58.10
69382;DHT22;56560;50.692;12.844;2023-06-10T07:45:39;23.30;58.10
69382;DHT22;56560;50.692;12.844;2023-06-10T07:48:05;23.60;57.50
69382;DHT22;56560;50.692;12.844;2023-06-10T07:50:30;23.40;56.70
69382;DHT22;56560;50.692;12.844;2023-06-10T07:52:56;23.10;57.70
69382;DHT22;56560;50.692;12.844;2023-06-10T07:55:22;23.00;57.70
69382;DHT22;56560;50.692;12.844;2023-06-10T07:57:48;23.20;57.90
69382;DHT22;56560;50.692;12.844;2023-06-10T08:00:13;23.40;57.60
69382;DHT22;56560;50.692;12.844;2023-06-10T08:02:39;23.50;56.40
69382;DHT22;56560;50.692;12.844;2023-06-10T08:05:05;23.70;56.60
69382;DHT22;56560;50.692;12.844;2023-06-10T08:07:31;23.50;55.90
69382;DHT22;56560;50.692;12.844;2023-06-10T08:09:57;23.50;56.60
69382;DHT22;56560;50.692;12.844;2023-06-10T08:12:22;23.80;56.30
69382;DHT22;56560;50.692;12.844;2023-06-10T08:14:48;24.10;56.20
69382;DHT22;56560;50.692;12.844;2023-06-10T08:17:14;24.40;55.40
69382;DHT22;56560;50.692;12.844;2023-06-10T08:19:39;24.90;55.20
69382;DHT22;56560;50.692;12.844;2023-06-10T08:22:05;25.20;54.10
69382;DHT22;56560;50.692;12.844;2023-06-10T08:24:31;25.50;52.80
69382;DHT22;56560;50.692;12.844;2023-06-10T08:26:56;25.40;52.50
69382;DHT22;56560;50.692;12.844;2023-06-10T08:29:23;25.30;52.20
69382;DHT22;56560;50.692;12.844;2023-06-10T08:31:48;25.60;52.40
69382;DHT22;56560;50.692;12.844;2023-06-10T08:34:14;26.00;50.60
69382;DHT22;56560;50.692;12.844;2023-06-10T08:36:40;26.00;50.80
69382;DHT22;56560;50.692;12.844;2023-06-10T08:39:06;26.00;50.70
69382;DHT22;56560;50.692;12.844;2023-06-10T08:41:36;25.70;50.40
69382;DHT22;56560;50.692;12.844;2023-06-10T08:44:25;25.30;52.00
69382;DHT22;56560;50.692;12.844;2023-06-10T08:46:53;25.10;51.70
69382;DHT22;56560;50.692;12.844;2023-06-10T08:49:23;25.20;52.20
69382;DHT22;56560;50.692;12.844;2023-06-10T08:51:59;25.00;52.60
69382;DHT22;56560;50.692;12.844;2023-06-10T08:54:28;25.20;52.70
69382;DHT22;56560;50.692;12.844;2023-06-10T08:56:55;25.60;51.70
69382;DHT22;56560;50.692;12.844;2023-06-10T08:59:23;26.00;50.80
69382;DHT22;56560;50.692;12.844;2023-06-10T09:01:50;26.10;50.50
69382;DHT22;56560;50.692;12.844;2023-06-10T09:04:16;25.90;50.60
69382;DHT22;56560;50.692;12.844;2023-06-10T09:06:43;25.70;51.20
69382;DHT22;56560;50.692;12.844;2023-06-10T09:09:10;25.70;51.60
69382;DHT22;56560;50.692;12.844;2023-06-10T09:11:37;25.70;51.40
69382;DHT22;56560;50.692;12.844;2023-06-10T09:14:03;25.60;52.10
69382;DHT22;56560;50.692;12.844;2023-06-10T09:16:29;25.40;52.10
69382;DHT22;56560;50.692;12.844;2023-06-10T09:18:55;25.10;53.10
69382;DHT22;56560;50.692;12.844;2023-06-10T09:21:24;24.70;53.90
69382;DHT22;56560;50.692;12.844;2023-06-10T09:23:51;24.80;53.40
69382;DHT22;56560;50.692;12.844;2023-06-10T09:26:16;24.90;54.00
69382;DHT22;56560;50.692;12.844;2023-06-10T09:28:48;24.90;54.50
69382;DHT22;56560;50.692;12.844;2023-06-10T09:31:15;24.80;54.00
69382;DHT22;56560;50.692;12.844;2023-06-10T09:33:44;24.80;53.40
69382;DHT22;56560;50.692;12.844;2023-06-10T09:36:10;24.50;52.40
69382;DHT22;56560;50.692;12.844;2023-06-10T09:38:36;24.20;53.70
69382;DHT22;56560;50.692;12.844;2023-06-10T09:41:03;24.20;55.20
69382;DHT22;56560;50.692;12.844;2023-06-10T09:43:43;24.40;54.50
69382;DHT22;56560;50.692;12.844;2023-06-10T09:46:19;24.60;54.90
69382;DHT22;56560;50.692;12.844;2023-06-10T09:48:47;24.60;53.20
69382;DHT22;56560;50.692;12.844;2023-06-10T09:51:13;24.40;53.90
69382;DHT22;56560;50.692;12.844;2023-06-10T09:53:39;24.30;55.40
69382;DHT22;56560;50.692;12.844;2023-06-10T09:56:05;24.60;55.80
69382;DHT22;56560;50.692;12.844;2023-06-10T09:58:40;24.60;55.00
69382;DHT22;56560;50.692;12.844;2023-06-10T10:01:10;24.20;56.00
69382;DHT22;56560;50.692;12.844;2023-06-10T10:03:49;23.90;57.10
69382;DHT22;56560;50.692;12.844;2023-06-10T10:06:16;24.10;57.20
69382;DHT22;56560;50.692;12.844;2023-06-10T10:08:43;24.00;56.50
69382;DHT22;56560;50.692;12.844;2023-06-10T10:11:12;24.20;56.20
69382;DHT22;56560;50.692;12.844;2023-06-10T10:13:38;24.50;55.70
69382;DHT22;56560;50.692;12.844;2023-06-10T10:16:09;24.90;54.90
69382;DHT22;56560;50.692;12.844;2023-06-10T10:18:39;25.30;53.50
69382;DHT22;56560;50.692;12.844;2023-06-10T10:21:12;25.20;53.30
69382;DHT22;56560;50.692;12.844;2023-06-10T10:26:15;25.60;52.30
69382;DHT22;56560;50.692;12.844;2023-06-10T10:28:46;26.10;51.90
69382;DHT22;56560;50.692;12.844;2023-06-10T10:31:16;26.70;50.00
69382;DHT22;56560;50.692;12.844;2023-06-10T10:33:57;27.30;48.00
69382;DHT22;56560;50.692;12.844;2023-06-10T10:36:24;27.50;48.10
69382;DHT22;56560;50.692;12.844;2023-06-10T10:38:50;28.00;47.90
69382;DHT22;56560;50.692;12.844;2023-06-10T10:41:17;28.30;44.80
69382;DHT22;56560;50.692;12.844;2023-06-10T10:43:44;27.80;46.50
69382;DHT22;56560;50.692;12.844;2023-06-10T10:46:16;27.40;46.40
69382;DHT22;56560;50.692;12.844;2023-06-10T10:48:43;26.90;46.40
69382;DHT22;56560;50.692;12.844;2023-06-10T10:51:10;26.40;46.80
69382;DHT22;56560;50.692;12.844;2023-06-10T10:53:39;26.40;47.00
69382;DHT22;56560;50.692;12.844;2023-06-10T10:56:16;26.70;45.50
69382;DHT22;56560;50.692;12.844;2023-06-10T10:59:04;26.80;45.60
69382;DHT22;56560;50.692;12.844;2023-06-10T11:01:48;27.30;45.40
69382;DHT22;56560;50.692;12.844;2023-06-10T11:04:17;27.30;44.90
69382;DHT22;56560;50.692;12.844;2023-06-10T11:06:53;27.30;45.00
69382;DHT22;56560;50.692;12.844;2023-06-10T11:09:26;27.40;45.60
69382;DHT22;56560;50.692;12.844;2023-06-10T11:11:59;27.40;45.50
69382;DHT22;56560;50.692;12.844;2023-06-10T11:14:28;27.60;46.40
69382;DHT22;56560;50.692;12.844;2023-06-10T11:16:57;27.80;45.30
69382;DHT22;56560;50.692;12.844;2023-06-10T11:19:33;28.00;42.40
69382;DHT22;56560;50.692;12.844;2023-06-10T11:22:07;27.80;43.10
69382;DHT22;56560;50.692;12.844;2023-06-10T11:24:33;28.00;43.40
69382;DHT22;56560;50.692;12.844;2023-06-10T11:27:18;27.90;42.80
69382;DHT22;56560;50.692;12.844;2023-06-10T11:32:32;27.50;43.80
69382;DHT22;56560;50.692;12.844;2023-06-10T11:34:58;27.50;43.10
69382;DHT22;56560;50.692;12.844;2023-06-10T11:37:25;27.40;43.10
69382;DHT22;56560;50.692;12.844;2023-06-10T11:39:55;26.90;43.90
69382;DHT22;56560;50.692;12.844;2023-06-10T11:42:22;26.80;44.70
69382;DHT22;56560;50.692;12.844;2023-06-10T11:44:51;26.70;44.30
69382;DHT22;56560;50.692;12.844;2023-06-10T11:47:18;27.20;43.50
69382;DHT22;56560;50.692;12.844;2023-06-10T11:49:45;27.60;43.30
69382;DHT22;56560;50.692;12.844;2023-06-10T11:52:11;27.70;43.50
69382;DHT22;56560;50.692;12.844;2023-06-10T11:54:38;27.80;43.40
69382;DHT22;56560;50.692;12.844;2023-06-10T11:57:04;28.00;43.30
69382;DHT22;56560;50.692;12.844;2023-06-10T11:59:30;27.70;44.00
69382;DHT22;56560;50.692;12.844;2023-06-10T12:01:56;28.50;42.90
69382;DHT22;56560;50.692;12.844;2023-06-10T12:04:22;29.90;40.60
69382;DHT22;56560;50.692;12.844;2023-06-10T12:06:48;30.10;40.30
69382;DHT22;56560;50.692;12.844;2023-06-10T12:09:19;30.10;39.90
69382;DHT22;56560;50.692;12.844;2023-06-10T12:11:45;30.10;39.50
69382;DHT22;56560;50.692;12.844;2023-06-10T12:14:13;30.30;40.10
69382;DHT22;56560;50.692;12.844;2023-06-10T12:16:39;31.10;38.60
69382;DHT22;56560;50.692;12.844;2023-06-10T12:19:05;32.30;36.90
69382;DHT22;56560;50.692;12.844;2023-06-10T12:21:33;33.60;35.90
69382;DHT22;56560;50.692;12.844;2023-06-10T12:24:08;34.50;34.80
69382;DHT22;56560;50.692;12.844;2023-06-10T12:26:38;35.60;33.10
69382;DHT22;56560;50.692;12.844;2023-06-10T12:29:20;35.00;33.40
69382;DHT22;56560;50.692;12.844;2023-06-10T12:32:02;34.50;34.20
69382;DHT22;56560;50.692;12.844;2023-06-10T12:34:36;34.10;35.00
69382;DHT22;56560;50.692;12.844;2023-06-10T12:37:04;34.40;35.50
69382;DHT22;56560;50.692;12.844;2023-06-10T12:39:31;35.10;34.20
69382;DHT22;56560;50.692;12.844;2023-06-10T12:41:57;35.10;34.20
69382;DHT22;56560;50.692;12.844;2023-06-10T12:44:31;35.70;34.20
69382;DHT22;56560;50.692;12.844;2023-06-10T12:46:56;36.50;32.20
69382;DHT22;56560;50.692;12.844;2023-06-10T12:49:22;36.70;32.90
69382;DHT22;56560;50.692;12.844;2023-06-10T12:51:48;36.90;31.90
69382;DHT22;56560;50.692;12.844;2023-06-10T12:54:14;37.20;31.60
69382;DHT22;56560;50.692;12.844;2023-06-10T12:56:39;36.90;31.80
69382;DHT22;56560;50.692;12.844;2023-06-10T12:59:05;37.20;31.80
69382;DHT22;56560;50.692;12.844;2023-06-10T13:01:31;37.60;30.40
69382;DHT22;56560;50.692;12.844;2023-06-10T13:03:58;37.90;29.70
69382;DHT22;56560;50.692;12.844;2023-06-10T13:06:23;36.60;31.10
69382;DHT22;56560;50.692;12.844;2023-06-10T13:08:49;35.80;32.10
69382;DHT22;56560;50.692;12.844;2023-06-10T13:11:16;36.10;31.30
69382;DHT22;56560;50.692;12.844;2023-06-10T13:13:42;37.30;30.40
69382;DHT22;56560;50.692;12.844;2023-06-10T13:16:08;37.60;29.70
69382;DHT22;56560;50.692;12.844;2023-06-10T13:18:34;37.50;29.60
69382;DHT22;56560;50.692;12.844;2023-06-10T13:21:05;37.30;30.00
69382;DHT22;56560;50.692;12.844;2023-06-10T13:23:31;36.70;29.70
69382;DHT22;56560;50.692;12.844;2023-06-10T13:25:57;35.90;30.30
69382;DHT22;56560;50.692;12.844;2023-06-10T13:28:23;36.30;30.10
69382;DHT22;56560;50.692;12.844;2023-06-10T13:30:49;37.60;29.10
69382;DHT22;56560;50.692;12.844;2023-06-10T13:33:15;36.80;28.90
69382;DHT22;56560;50.692;12.844;2023-06-10T13:35:41;35.20;31.60
69382;DHT22;56560;50.692;12.844;2023-06-10T13:38:06;33.40;32.10
69382;DHT22;56560;50.692;12.844;2023-06-10T13:40:32;32.00;33.80
69382;DHT22;56560;50.692;12.844;2023-06-10T13:42:58;31.40;34.40
69382;DHT22;56560;50.692;12.844;2023-06-10T13:45:24;31.60;33.70
69382;DHT22;56560;50.692;12.844;2023-06-10T13:47:50;32.40;34.00
69382;DHT22;56560;50.692;12.844;2023-06-10T13:50:16;33.40;34.00
69382;DHT22;56560;50.692;12.844;2023-06-10T13:52:41;34.70;32.50
69382;DHT22;56560;50.692;12.844;2023-06-10T13:55:08;36.20;31.00
69382;DHT22;56560;50.692;12.844;2023-06-10T13:57:33;36.80;30.20
69382;DHT22;56560;50.692;12.844;2023-06-10T13:59:59;36.70;30.90
69382;DHT22;56560;50.692;12.844;2023-06-10T14:02:25;36.10;30.80
69382;DHT22;56560;50.692;12.844;2023-06-10T14:04:50;35.40;32.40
69382;DHT22;56560;50.692;12.844;2023-06-10T14:07:16;34.50;32.10
69382;DHT22;56560;50.692;12.844;2023-06-10T14:09:42;33.80;33.90
69382;DHT22;56560;50.692;12.844;2023-06-10T14:12:09;33.40;34.50
69382;DHT22;56560;50.692;12.844;2023-06-10T14:14:34;33.40;34.00
69382;DHT22;56560;50.692;12.844;2023-06-10T14:17:02;33.40;33.90
69382;DHT22;56560;50.692;12.844;2023-06-10T14:19:28;32.90;34.60
69382;DHT22;56560;50.692;12.844;2023-06-10T14:21:54;32.70;35.00
69382;DHT22;56560;50.692;12.844;2023-06-10T14:24:20;33.60;34.60
69382;DHT22;56560;50.692;12.844;2023-06-10T14:26:46;35.00;32.20
69382;DHT22;56560;50.692;12.844;2023-06-10T14:29:12;36.30;32.10
69382;DHT22;56560;50.692;12.844;2023-06-10T14:31:40;37.30;29.60
69382;DHT22;56560;50.692;12.844;2023-06-10T14:34:06;38.10;28.90
69382;DHT22;56560;50.692;12.844;2023-06-10T14:36:33;38.80;28.10
69382;DHT22;56560;50.692;12.844;2023-06-10T14:38:59;39.10;27.80
69382;DHT22;56560;50.692;12.844;2023-06-10T14:41:25;39.70;27.30
69382;DHT22;56560;50.692;12.844;2023-06-10T14:43:51;39.70;27.10
69382;DHT22;56560;50.692;12.844;2023-06-10T14:46:17;37.60;28.20
69382;DHT22;56560;50.692;12.844;2023-06-10T14:48:43;35.00;30.60
69382;DHT22;56560;50.692;12.844;2023-06-10T14:51:08;32.40;33.40
69382;DHT22;56560;50.692;12.844;2023-06-10T14:53:34;31.00;35.10
69382;DHT22;56560;50.692;12.844;2023-06-10T14:56:00;30.30;35.30
69382;DHT22;56560;50.692;12.844;2023-06-10T14:58:25;29.70;35.80
69382;DHT22;56560;50.692;12.844;2023-06-10T15:00:51;29.20;37.40
69382;DHT22;56560;50.692;12.844;2023-06-10T15:03:17;29.90;36.70
69382;DHT22;56560;50.692;12.844;2023-06-10T15:05:42;31.90;34.50
69382;DHT22;56560;50.692;12.844;2023-06-10T15:08:08;34.20;33.20
69382;DHT22;56560;50.692;12.844;2023-06-10T15:10:34;35.90;30.20
69382;DHT22;56560;50.692;12.844;2023-06-10T15:12:59;36.60;29.30
69382;DHT22;56560;50.692;12.844;2023-06-10T15:15:25;37.00;28.40
69382;DHT22;56560;50.692;12.844;2023-06-10T15:17:52;37.20;29.00
69382;DHT22;56560;50.692;12.844;2023-06-10T15:20:18;37.70;28.80
69382;DHT22;56560;50.692;12.844;2023-06-10T15:22:43;38.30;28.40
69382;DHT22;56560;50.692;12.844;2023-06-10T15:25:09;37.30;29.30